sensor_id;sensor_type;location;lat;lon;timestamp;temperature;humidity
20327;DHT22;20947;47.816;9.644;2022-07-06T07:24:31;21.50;55.60
20327;DHT22;20947;47.816;9.644;2022-07-06T07:28:33;21.50;55.70
20327;DHT22;20947;47.816;9.644;2022-07-06T07:32:34;21.50;55.90
20327;DHT22;20947;47.816;9.644;2022-07-06T07:36:37;21.50;56.00
20327;DHT22;20947;47.816;9.644;2022-07-06T07:40:38;21.60;56.40
20327;DHT22;20947;47.816;9.644;2022-07-06T07:44:41;21.60;56.40
20327;DHT22;20947;47.816;9.644;2022-07-06T07:48:41;21.60;56.10
20327;DHT22;20947;47.816;9.644;2022-07-06T07:52:44;21.60;56.20
20327;DHT22;20947;47.816;9.644;2022-07-06T07:56:45;21.60;56.10
20327;DHT22;20947;47.816;9.644;2022-07-06T08:00:46;21.60;56.00
20327;DHT22;20947;47.816;9.644;2022-07-06T08:04:51;21.60;55.90
20327;DHT22;20947;47.816;9.644;2022-07-06T08:08:56;21.60;55.90
20327;DHT22;20947;47.816;9.644;2022-07-06T08:13:02;21.60;55.80
20327;DHT22;20947;47.816;9.644;2022-07-06T08:17:07;21.60;55.80
20327;DHT22;20947;47.816;9.644;2022-07-06T08:21:10;21.60;55.80
20327;DHT22;20947;47.816;9.644;2022-07-06T08:25:13;21.60;55.80
20327;DHT22;20947;47.816;9.644;2022-07-06T08:29:14;21.60;55.70
20327;DHT22;20947;47.816;9.644;2022-07-06T08:33:14;21.60;55.70
20327;DHT22;20947;47.816;9.644;2022-07-06T08:37:15;21.60;55.70
20327;DHT22;20947;47.816;9.644;2022-07-06T08:41:16;21.60;55.70
20327;DHT22;20947;47.816;9.644;2022-07-06T08:45:18;21.60;55.60
20327;DHT22;20947;47.816;9.644;2022-07-06T08:49:22;21.60;55.60
20327;DHT22;20947;47.816;9.644;2022-07-06T08:53:25;21.60;55.60
20327;DHT22;20947;47.816;9.644;2022-07-06T08:57:30;21.60;55.60
20327;DHT22;20947;47.816;9.644;2022-07-06T09:01:32;21.60;55.60
20327;DHT22;20947;47.816;9.644;2022-07-06T09:05:34;21.70;55.60
20327;DHT22;20947;47.816;9.644;2022-07-06T09:09:37;21.60;55.50
20327;DHT22;20947;47.816;9.644;2022-07-06T09:13:38;21.70;55.60
20327;DHT22;20947;47.816;9.644;2022-07-06T09:17:43;21.70;55.60
20327;DHT22;20947;47.816;9.644;2022-07-06T09:21:48;21.70;55.60
20327;DHT22;20947;47.816;9.644;2022-07-06T09:25:54;21.70;55.60
20327;DHT22;20947;47.816;9.644;2022-07-06T09:30:00;21.70;55.60
20327;DHT22;20947;47.816;9.644;2022-07-06T09:34:08;21.70;55.60
20327;DHT22;20947;47.816;9.644;2022-07-06T09:38:14;21.70;55.60
20327;DHT22;20947;47.816;9.644;2022-07-06T09:42:15;21.70;55.60
20327;DHT22;20947;47.816;9.644;2022-07-06T09:46:16;21.70;55.60
20327;DHT22;20947;47.816;9.644;2022-07-06T09:50:18;21.70;55.60
20327;DHT22;20947;47.816;9.644;2022-07-06T09:54:21;21.70;56.30
20327;DHT22;20947;47.816;9.644;2022-07-06T09:58:22;21.70;55.90
20327;DHT22;20947;47.816;9.644;2022-07-06T10:02:24;21.70;56.00
20327;DHT22;20947;47.816;9.644;2022-07-06T10:06:29;21.70;55.80
20327;DHT22;20947;47.816;9.644;2022-07-06T10:10:35;21.70;55.80
20327;DHT22;20947;47.816;9.644;2022-07-06T10:14:40;21.80;56.00
20327;DHT22;20947;47.816;9.644;2022-07-06T10:18:43;21.80;56.70
20327;DHT22;20947;47.816;9.644;2022-07-06T10:22:44;21.80;56.30
20327;DHT22;20947;47.816;9.644;2022-07-06T10:26:48;21.80;56.60
20327;DHT22;20947;47.816;9.644;2022-07-06T10:30:49;21.80;56.40
20327;DHT22;20947;47.816;9.644;2022-07-06T10:34:55;21.80;56.20
20327;DHT22;20947;47.816;9.644;2022-07-06T10:39:01;21.80;56.40
20327;DHT22;20947;47.816;9.644;2022-07-06T10:43:34;21.80;56.40
20327;DHT22;20947;47.816;9.644;2022-07-06T10:47:37;21.80;56.70
20327;DHT22;20947;47.816;9.644;2022-07-06T10:51:41;21.80;56.80
20327;DHT22;20947;47.816;9.644;2022-07-06T10:55:47;21.80;56.80
20327;DHT22;20947;47.816;9.644;2022-07-06T11:00:04;21.90;56.90
20327;DHT22;20947;47.816;9.644;2022-07-06T11:04:09;21.90;56.50
20327;DHT22;20947;47.816;9.644;2022-07-06T11:08:14;21.90;55.90
20327;DHT22;20947;47.816;9.644;2022-07-06T11:12:18;22.00;55.20
20327;DHT22;20947;47.816;9.644;2022-07-06T11:16:24;22.10;54.60
20327;DHT22;20947;47.816;9.644;2022-07-06T11:20:31;22.10;54.20
20327;DHT22;20947;47.816;9.644;2022-07-06T11:24:37;22.20;53.80
20327;DHT22;20947;47.816;9.644;2022-07-06T11:28:41;22.30;53.50
20327;DHT22;20947;47.816;9.644;2022-07-06T11:32:42;22.30;53.30
20327;DHT22;20947;47.816;9.644;2022-07-06T11:36:45;22.30;53.10
20327;DHT22;20947;47.816;9.644;2022-07-06T11:40:48;22.30;52.90
20327;DHT22;20947;47.816;9.644;2022-07-06T11:44:53;22.30;52.60
20327;DHT22;20947;47.816;9.644;2022-07-06T11:53:02;22.40;52.40
20327;DHT22;20947;47.816;9.644;2022-07-06T11:57:08;22.40;52.40
20327;DHT22;20947;47.816;9.644;2022-07-06T12:01:14;22.40;52.20
20327;DHT22;20947;47.816;9.644;2022-07-06T12:05:31;22.40;52.00
20327;DHT22;20947;47.816;9.644;2022-07-06T12:09:35;22.40;51.90
20327;DHT22;20947;47.816;9.644;2022-07-06T12:13:41;22.40;52.20
20327;DHT22;20947;47.816;9.644;2022-07-06T12:17:47;22.40;51.70
20327;DHT22;20947;47.816;9.644;2022-07-06T12:21:51;22.40;51.70
20327;DHT22;20947;47.816;9.644;2022-07-06T12:25:59;22.40;51.50
20327;DHT22;20947;47.816;9.644;2022-07-06T12:30:10;22.40;52.10
20327;DHT22;20947;47.816;9.644;2022-07-06T12:34:26;22.40;51.40
20327;DHT22;20947;47.816;9.644;2022-07-06T12:38:27;22.50;51.30
20327;DHT22;20947;47.816;9.644;2022-07-06T12:42:32;22.50;51.00
20327;DHT22;20947;47.816;9.644;2022-07-06T12:46:36;22.50;51.30
20327;DHT22;20947;47.816;9.644;2022-07-06T12:50:41;22.50;50.80
20327;DHT22;20947;47.816;9.644;2022-07-06T12:54:49;22.50;50.80
20327;DHT22;20947;47.816;9.644;2022-07-06T12:58:59;22.50;50.60
20327;DHT22;20947;47.816;9.644;2022-07-06T13:03:00;22.50;50.50
20327;DHT22;20947;47.816;9.644;2022-07-06T13:07:04;22.60;50.50
20327;DHT22;20947;47.816;9.644;2022-07-06T13:11:09;22.60;50.40
20327;DHT22;20947;47.816;9.644;2022-07-06T13:15:13;22.50;50.30
20327;DHT22;20947;47.816;9.644;2022-07-06T13:19:17;22.60;50.20
20327;DHT22;20947;47.816;9.644;2022-07-06T13:23:17;22.60;50.20
20327;DHT22;20947;47.816;9.644;2022-07-06T13:27:18;22.60;50.10
20327;DHT22;20947;47.816;9.644;2022-07-06T13:31:21;22.60;49.90
20327;DHT22;20947;47.816;9.644;2022-07-06T13:35:21;22.70;50.50
20327;DHT22;20947;47.816;9.644;2022-07-06T13:39:22;22.70;50.40
20327;DHT22;20947;47.816;9.644;2022-07-06T13:43:26;22.60;50.20
20327;DHT22;20947;47.816;9.644;2022-07-06T13:47:38;22.60;50.10
20327;DHT22;20947;47.816;9.644;2022-07-06T13:51:41;22.60;50.10
20327;DHT22;20947;47.816;9.644;2022-07-06T13:55:42;22.70;50.40
20327;DHT22;20947;47.816;9.644;2022-07-06T13:59:42;22.60;50.00
20327;DHT22;20947;47.816;9.644;2022-07-06T14:03:47;22.60;49.90
20327;DHT22;20947;47.816;9.644;2022-07-06T14:07:52;22.60;49.70
20327;DHT22;20947;47.816;9.644;2022-07-06T14:11:52;22.60;49.70
20327;DHT22;20947;47.816;9.644;2022-07-06T14:15:56;22.60;49.70
20327;DHT22;20947;47.816;9.644;2022-07-06T14:19:59;22.60;49.70
20327;DHT22;20947;47.816;9.644;2022-07-06T14:24:00;22.60;49.50
20327;DHT22;20947;47.816;9.644;2022-07-06T14:28:02;22.60;49.50
20327;DHT22;20947;47.816;9.644;2022-07-06T14:32:07;22.60;49.50
20327;DHT22;20947;47.816;9.644;2022-07-06T14:36:10;22.60;49.50
20327;DHT22;20947;47.816;9.644;2022-07-06T14:40:11;22.60;49.40
20327;DHT22;20947;47.816;9.644;2022-07-06T14:44:12;22.60;49.30
20327;DHT22;20947;47.816;9.644;2022-07-06T14:48:13;22.60;49.20
20327;DHT22;20947;47.816;9.644;2022-07-06T14:52:16;22.60;49.10
20327;DHT22;20947;47.816;9.644;2022-07-06T14:56:21;22.70;49.40
20327;DHT22;20947;47.816;9.644;2022-07-06T15:00:27;22.70;49.30
20327;DHT22;20947;47.816;9.644;2022-07-06T15:04:30;22.70;49.00
20327;DHT22;20947;47.816;9.644;2022-07-06T15:08:33;22.70;49.10
20327;DHT22;20947;47.816;9.644;2022-07-06T15:12:36;22.70;48.90
20327;DHT22;20947;47.816;9.644;2022-07-06T15:16:37;22.70;48.90
20327;DHT22;20947;47.816;9.644;2022-07-06T15:20:40;22.70;49.00
20327;DHT22;20947;47.816;9.644;2022-07-06T15:24:46;22.70;48.90
20327;DHT22;20947;47.816;9.644;2022-07-06T15:28:49;22.70;49.00
20327;DHT22;20947;47.816;9.644;2022-07-06T15:32:52;22.70;49.00
20327;DHT22;20947;47.816;9.644;2022-07-06T15:36:52;22.70;49.00
20327;DHT22;20947;47.816;9.644;2022-07-06T15:40:56;22.60;49.00
20327;DHT22;20947;47.816;9.644;2022-07-06T15:45:00;22.60;48.90
20327;DHT22;20947;47.816;9.644;2022-07-06T15:49:03;22.60;48.90
20327;DHT22;20947;47.816;9.644;2022-07-06T15:53:04;22.70;48.90
20327;DHT22;20947;47.816;9.644;2022-07-06T15:57:05;22.70;48.90
20327;DHT22;20947;47.816;9.644;2022-07-06T16:01:08;22.70;48.80
20327;DHT22;20947;47.816;9.644;2022-07-06T16:05:09;22.70;48.80
20327;DHT22;20947;47.816;9.644;2022-07-06T16:09:09;22.70;48.70
20327;DHT22;20947;47.816;9.644;2022-07-06T16:13:12;22.70;48.70
20327;DHT22;20947;47.816;9.644;2022-07-06T16:17:16;22.70;48.70
20327;DHT22;20947;47.816;9.644;2022-07-06T16:21:19;22.70;48.80
20327;DHT22;20947;47.816;9.644;2022-07-06T16:25:22;22.60;48.50
20327;DHT22;20947;47.816;9.644;2022-07-06T16:29:25;22.60;48.30
20327;DHT22;20947;47.816;9.644;2022-07-06T16:33:26;22.70;48.40
20327;DHT22;20947;47.816;9.644;2022-07-06T16:37:29;22.60;48.30
20327;DHT22;20947;47.816;9.644;2022-07-06T16:41:30;22.70;48.40
20327;DHT22;20947;47.816;9.644;2022-07-06T16:45:33;22.70;48.40
20327;DHT22;20947;47.816;9.644;2022-07-06T16:49:36;22.70;48.40
20327;DHT22;20947;47.816;9.644;2022-07-06T16:53:39;22.70;48.40
20327;DHT22;20947;47.816;9.644;2022-07-06T16:57:43;22.70;48.40
20327;DHT22;20947;47.816;9.644;2022-07-06T17:01:49;22.60;48.30
20327;DHT22;20947;47.816;9.644;2022-07-06T17:05:52;22.60;48.30
20327;DHT22;20947;47.816;9.644;2022-07-06T17:09:53;22.70;48.40
20327;DHT22;20947;47.816;9.644;2022-07-06T17:13:58;22.60;48.30
20327;DHT22;20947;47.816;9.644;2022-07-06T17:17:59;22.60;48.10
20327;DHT22;20947;47.816;9.644;2022-07-06T17:22:00;22.60;48.10
20327;DHT22;20947;47.816;9.644;2022-07-06T17:26:03;22.60;48.00
20327;DHT22;20947;47.816;9.644;2022-07-06T17:30:04;22.60;48.00
20327;DHT22;20947;47.816;9.644;2022-07-06T17:34:09;22.70;48.00
20327;DHT22;20947;47.816;9.644;2022-07-06T17:38:10;22.70;48.00
20327;DHT22;20947;47.816;9.644;2022-07-06T17:42:11;22.70;48.10
20327;DHT22;20947;47.816;9.644;2022-07-06T17:46:17;22.70;47.90
20327;DHT22;20947;47.816;9.644;2022-07-06T17:50:20;22.70;47.90
20327;DHT22;20947;47.816;9.644;2022-07-06T17:54:21;22.70;47.90
20327;DHT22;20947;47.816;9.644;2022-07-06T17:58:24;22.70;47.80
20327;DHT22;20947;47.816;9.644;2022-07-06T18:02:25;22.60;47.70
20327;DHT22;20947;47.816;9.644;2022-07-06T18:06:27;22.70;47.70
20327;DHT22;20947;47.816;9.644;2022-07-06T18:10:28;22.60;47.60
20327;DHT22;20947;47.816;9.644;2022-07-06T18:14:35;22.60;47.60
20327;DHT22;20947;47.816;9.644;2022-07-06T18:18:36;22.60;47.50
20327;DHT22;20947;47.816;9.644;2022-07-06T18:22:39;22.60;47.50
20327;DHT22;20947;47.816;9.644;2022-07-06T18:26:41;22.60;47.40
20327;DHT22;20947;47.816;9.644;2022-07-06T18:30:48;22.60;47.40
20327;DHT22;20947;47.816;9.644;2022-07-06T18:34:52;22.60;47.40
20327;DHT22;20947;47.816;9.644;2022-07-06T18:38:55;22.60;47.30
20327;DHT22;20947;47.816;9.644;2022-07-06T18:42:58;22.60;47.20
20327;DHT22;20947;47.816;9.644;2022-07-06T18:47:04;22.60;47.20
20327;DHT22;20947;47.816;9.644;2022-07-06T18:51:05;22.60;47.20
20327;DHT22;20947;47.816;9.644;2022-07-06T18:55:08;22.60;47.10
20327;DHT22;20947;47.816;9.644;2022-07-06T18:59:09;22.60;47.00
20327;DHT22;20947;47.816;9.644;2022-07-06T19:03:09;22.60;47.00
20327;DHT22;20947;47.816;9.644;2022-07-06T19:07:12;22.60;47.00
20327;DHT22;20947;47.816;9.644;2022-07-06T19:11:18;22.60;47.00
20327;DHT22;20947;47.816;9.644;2022-07-06T19:15:21;22.60;46.90
20327;DHT22;20947;47.816;9.644;2022-07-06T19:19:22;22.60;46.80
20327;DHT22;20947;47.816;9.644;2022-07-06T19:23:28;22.60;46.80
20327;DHT22;20947;47.816;9.644;2022-07-06T19:27:32;22.60;46.80
20327;DHT22;20947;47.816;9.644;2022-07-06T19:31:35;22.60;46.70
20327;DHT22;20947;47.816;9.644;2022-07-06T19:35:40;22.60;47.70
20327;DHT22;20947;47.816;9.644;2022-07-06T19:39:41;22.70;48.80
20327;DHT22;20947;47.816;9.644;2022-07-06T19:43:46;22.60;49.00
20327;DHT22;20947;47.816;9.644;2022-07-06T19:47:47;22.50;48.90
20327;DHT22;20947;47.816;9.644;2022-07-06T19:51:48;22.40;49.40
20327;DHT22;20947;47.816;9.644;2022-07-06T19:55:53;22.40;49.60
20327;DHT22;20947;47.816;9.644;2022-07-06T19:59:55;22.30;49.80
20327;DHT22;20947;47.816;9.644;2022-07-06T20:03:58;22.30;49.80
20327;DHT22;20947;47.816;9.644;2022-07-06T20:08:03;22.30;49.80
20327;DHT22;20947;47.816;9.644;2022-07-06T20:12:04;22.30;49.70
20327;DHT22;20947;47.816;9.644;2022-07-06T20:16:08;22.30;50.20
20327;DHT22;20947;47.816;9.644;2022-07-06T20:20:11;22.30;50.00
20327;DHT22;20947;47.816;9.644;2022-07-06T20:24:17;22.30;49.60
20327;DHT22;20947;47.816;9.644;2022-07-06T20:28:20;22.30;49.70
20327;DHT22;20947;47.816;9.644;2022-07-06T20:32:21;22.20;49.60
20327;DHT22;20947;47.816;9.644;2022-07-06T20:36:26;22.20;49.40
20327;DHT22;20947;47.816;9.644;2022-07-06T20:40:29;22.20;50.10
20327;DHT22;20947;47.816;9.644;2022-07-06T20:44:32;22.20;50.20
20327;DHT22;20947;47.816;9.644;2022-07-06T20:48:33;22.20;50.40
20327;DHT22;20947;47.816;9.644;2022-07-06T20:52:34;22.20;50.20
20327;DHT22;20947;47.816;9.644;2022-07-06T20:56:37;22.20;50.20
20327;DHT22;20947;47.816;9.644;2022-07-06T21:00:42;22.20;50.20
20327;DHT22;20947;47.816;9.644;2022-07-06T21:04:46;22.20;49.90
20327;DHT22;20947;47.816;9.644;2022-07-06T21:08:46;22.20;50.50
20327;DHT22;20947;47.816;9.644;2022-07-06T21:12:49;22.20;50.20
20327;DHT22;20947;47.816;9.644;2022-07-06T21:16:52;22.20;50.20
20327;DHT22;20947;47.816;9.644;2022-07-06T21:20:55;22.20;50.50
20327;DHT22;20947;47.816;9.644;2022-07-06T21:24:56;22.20;50.60
20327;DHT22;20947;47.816;9.644;2022-07-06T21:28:56;22.20;50.80
20327;DHT22;20947;47.816;9.644;2022-07-06T21:32:59;22.20;50.40
20327;DHT22;20947;47.816;9.644;2022-07-06T21:37:03;22.20;50.80
20327;DHT22;20947;47.816;9.644;2022-07-06T21:41:06;22.10;50.90
20327;DHT22;20947;47.816;9.644;2022-07-06T21:45:07;22.10;51.60
20327;DHT22;20947;47.816;9.644;2022-07-06T21:49:12;22.10;51.10
20327;DHT22;20947;47.816;9.644;2022-07-06T21:53:15;22.10;50.90
20327;DHT22;20947;47.816;9.644;2022-07-06T21:57:20;22.10;50.80
20327;DHT22;20947;47.816;9.644;2022-07-06T22:01:21;22.10;51.20
20327;DHT22;20947;47.816;9.644;2022-07-06T22:05:27;22.10;51.20
20327;DHT22;20947;47.816;9.644;2022-07-06T22:09:30;22.10;51.00
20327;DHT22;20947;47.816;9.644;2022-07-06T22:13:35;22.10;51.40
20327;DHT22;20947;47.816;9.644;2022-07-06T22:17:41;22.10;51.00
20327;DHT22;20947;47.816;9.644;2022-07-06T22:21:47;22.10;51.10
20327;DHT22;20947;47.816;9.644;2022-07-06T22:25:47;22.10;50.80
20327;DHT22;20947;47.816;9.644;2022-07-06T22:29:48;22.10;51.30
20327;DHT22;20947;47.816;9.644;2022-07-06T22:33:53;22.10;51.40
20327;DHT22;20947;47.816;9.644;2022-07-06T22:37:58;22.10;51.50
20327;DHT22;20947;47.816;9.644;2022-07-06T22:42:01;22.10;51.40
20327;DHT22;20947;47.816;9.644;2022-07-06T22:46:02;22.10;51.40
20327;DHT22;20947;47.816;9.644;2022-07-06T22:50:03;22.10;50.80
20327;DHT22;20947;47.816;9.644;2022-07-06T22:54:04;22.10;50.90
20327;DHT22;20947;47.816;9.644;2022-07-06T22:58:07;22.10;51.20
20327;DHT22;20947;47.816;9.644;2022-07-06T23:02:08;22.10;51.30
20327;DHT22;20947;47.816;9.644;2022-07-06T23:06:09;22.10;51.40
20327;DHT22;20947;47.816;9.644;2022-07-06T23:10:14;22.10;51.70
20327;DHT22;20947;47.816;9.644;2022-07-06T23:14:17;22.10;51.40
20327;DHT22;20947;47.816;9.644;2022-07-06T23:18:19;22.00;51.70
20327;DHT22;20947;47.816;9.644;2022-07-06T23:22:22;22.10;51.70
20327;DHT22;20947;47.816;9.644;2022-07-06T23:26:23;22.00;51.60
20327;DHT22;20947;47.816;9.644;2022-07-06T23:30:25;22.00;51.70
20327;DHT22;20947;47.816;9.644;2022-07-06T23:34:26;22.00;51.70
20327;DHT22;20947;47.816;9.644;2022-07-06T23:38:27;22.00;51.60
20327;DHT22;20947;47.816;9.644;2022-07-06T23:42:27;22.00;51.80
20327;DHT22;20947;47.816;9.644;2022-07-06T23:46:33;22.00;51.80
20327;DHT22;20947;47.816;9.644;2022-07-06T23:50:36;22.00;51.80
20327;DHT22;20947;47.816;9.644;2022-07-06T23:54:43;22.00;51.80
20327;DHT22;20947;47.816;9.644;2022-07-06T23:58:44;22.00;51.80
